DHWAF EDWX-EDXH
Flight info
| Callsign | DHWAF |
|---|---|
| Flight time | N/A |
| Altitude | 4500 |
| Route | GASTU/N0159F060 |
| Aircraft | B06/L-SDFGRY/C |
Departure
| Time | 2026-04-27 15:11 |
|---|---|
| Airport | Westerstede-Felde Airfield (EDWX) |
Arrival
| Time | N/A |
|---|---|
| Airport | Helgoland-Düne Airport (EDXH) |
| Time | Latitude | Longitude | Altitude | Speed | Heading |
|---|---|---|---|---|---|
| 2026-04-27 15:03 | 53.28898 | 7.93063 | 33 ft | 0 kts | 79° |
| 2026-04-27 15:07 | 53.28893 | 7.93069 | 41 ft | 3 kts | 83° |
| 2026-04-27 15:08 | 53.28881 | 7.93093 | 45 ft | 1 kts | 146° |
| 2026-04-27 15:08 | 53.28864 | 7.93074 | 54 ft | 9 kts | 268° |
| 2026-04-27 15:08 | 53.28838 | 7.92957 | 51 ft | 12 kts | 250° |
| 2026-04-27 15:08 | 53.28797 | 7.92815 | 50 ft | 14 kts | 231° |
| 2026-04-27 15:09 | 53.28756 | 7.92714 | 51 ft | 5 kts | 46° |
| 2026-04-27 15:09 | 53.28779 | 7.92789 | 75 ft | 32 kts | 58° |
| 2026-04-27 15:09 | 53.28925 | 7.93353 | 185 ft | 59 kts | 63° |
| 2026-04-27 15:09 | 53.29010 | 7.94095 | 303 ft | 77 kts | 94° |
| 2026-04-27 15:10 | 53.28660 | 7.94870 | 447 ft | 84 kts | 135° |
| 2026-04-27 15:10 | 53.28048 | 7.95222 | 524 ft | 103 kts | 164° |
| 2026-04-27 15:10 | 53.27339 | 7.95394 | 551 ft | 108 kts | 164° |
| 2026-04-27 15:10 | 53.27094 | 7.95473 | 550 ft | 108 kts | 161° |
| 2026-04-27 15:11 | 53.26433 | 7.95719 | 640 ft | 103 kts | 169° |
| 2026-04-27 15:11 | 53.25837 | 7.95103 | 714 ft | 111 kts | 243° |
| 2026-04-27 15:11 | 53.25647 | 7.93858 | 742 ft | 110 kts | 261° |
| 2026-04-27 15:11 | 53.25533 | 7.92598 | 753 ft | 110 kts | 262° |
| 2026-04-27 15:12 | 53.25353 | 7.91413 | 905 ft | 102 kts | 251° |
| 2026-04-27 15:12 | 53.25081 | 7.90290 | 949 ft | 106 kts | 245° |
| 2026-04-27 15:12 | 53.24964 | 7.89116 | 1032 ft | 103 kts | 279° |
| 2026-04-27 15:12 | 53.25182 | 7.88008 | 1134 ft | 98 kts | 301° |
| 2026-04-27 15:13 | 53.25552 | 7.87122 | 1318 ft | 89 kts | 316° |
| 2026-04-27 15:13 | 53.25981 | 7.86392 | 1409 ft | 93 kts | 320° |
| 2026-04-27 15:13 | 53.26477 | 7.85552 | 1319 ft | 106 kts | 319° |
| 2026-04-27 15:13 | 53.27174 | 7.85318 | 1141 ft | 110 kts | 20° |
| 2026-04-27 15:14 | 53.27654 | 7.86174 | 1241 ft | 94 kts | 64° |
| 2026-04-27 15:14 | 53.27731 | 7.87248 | 1266 ft | 93 kts | 84° |
| 2026-04-27 15:14 | 53.27766 | 7.88311 | 1148 ft | 95 kts | 78° |
| 2026-04-27 15:14 | 53.27914 | 7.89467 | 837 ft | 103 kts | 68° |
| 2026-04-27 15:15 | 53.28170 | 7.90522 | 601 ft | 91 kts | 58° |
| 2026-04-27 15:15 | 53.28410 | 7.91361 | 435 ft | 71 kts | 63° |
| 2026-04-27 15:15 | 53.28592 | 7.92082 | 229 ft | 66 kts | 56° |
| 2026-04-27 15:15 | 53.28759 | 7.92706 | 70 ft | 48 kts | 57° |
| 2026-04-27 15:16 | 53.28841 | 7.93031 | 53 ft | 13 kts | 50° |
| 2026-04-27 15:16 | 53.28861 | 7.93088 | 44 ft | 3 kts | 21° |
| 2026-04-27 15:16 | 53.28861 | 7.93096 | 41 ft | 2 kts | 24° |
| 2026-04-27 15:16 | 53.28902 | 7.93111 | 48 ft | 15 kts | 323° |
| 2026-04-27 15:17 | 53.28895 | 7.93043 | 33 ft | 1 kts | 248° |
| 2026-04-27 15:17 | 53.28895 | 7.93042 | 33 ft | 0 kts | 248° |